sensor_id;sensor_type;location;lat;lon;timestamp;P1;durP1;ratioP1;P2;durP2;ratioP2
5209;SDS011;2624;48.048;11.706;2023-12-07T00:04:44;5.23;;;3.10;;
5209;SDS011;2624;48.048;11.706;2023-12-07T00:09:47;4.30;;;3.10;;
5209;SDS011;2624;48.048;11.706;2023-12-07T00:14:48;2.63;;;2.40;;
5209;SDS011;2624;48.048;11.706;2023-12-07T00:19:50;4.17;;;3.37;;
5209;SDS011;2624;48.048;11.706;2023-12-07T00:24:55;6.00;;;3.37;;
5209;SDS011;2624;48.048;11.706;2023-12-07T00:29:56;3.93;;;2.77;;
5209;SDS011;2624;48.048;11.706;2023-12-07T00:34:58;7.83;;;4.27;;
5209;SDS011;2624;48.048;11.706;2023-12-07T00:40:01;5.27;;;3.27;;
5209;SDS011;2624;48.048;11.706;2023-12-07T00:45:04;5.90;;;3.80;;
5209;SDS011;2624;48.048;11.706;2023-12-07T00:50:06;4.23;;;3.57;;
5209;SDS011;2624;48.048;11.706;2023-12-07T00:55:10;6.30;;;3.40;;
5209;SDS011;2624;48.048;11.706;2023-12-07T01:00:12;5.33;;;4.30;;
5209;SDS011;2624;48.048;11.706;2023-12-07T01:05:14;9.47;;;4.20;;
5209;SDS011;2624;48.048;11.706;2023-12-07T01:10:17;9.70;;;6.03;;
5209;SDS011;2624;48.048;11.706;2023-12-07T01:15:19;6.60;;;4.40;;
5209;SDS011;2624;48.048;11.706;2023-12-07T01:20:21;10.00;;;5.30;;
5209;SDS011;2624;48.048;11.706;2023-12-07T01:25:24;7.77;;;4.97;;
5209;SDS011;2624;48.048;11.706;2023-12-07T01:30:26;7.93;;;5.03;;
5209;SDS011;2624;48.048;11.706;2023-12-07T01:35:27;8.30;;;4.00;;
5209;SDS011;2624;48.048;11.706;2023-12-07T01:40:31;2.63;;;2.40;;
5209;SDS011;2624;48.048;11.706;2023-12-07T01:45:32;8.13;;;4.07;;
5209;SDS011;2624;48.048;11.706;2023-12-07T01:50:35;4.40;;;3.03;;
5209;SDS011;2624;48.048;11.706;2023-12-07T01:55:38;5.60;;;4.07;;
5209;SDS011;2624;48.048;11.706;2023-12-07T02:00:40;9.27;;;4.90;;
5209;SDS011;2624;48.048;11.706;2023-12-07T02:05:43;9.40;;;5.77;;
5209;SDS011;2624;48.048;11.706;2023-12-07T02:10:49;10.10;;;5.37;;
5209;SDS011;2624;48.048;11.706;2023-12-07T02:15:52;3.17;;;2.90;;
5209;SDS011;2624;48.048;11.706;2023-12-07T02:20:58;7.10;;;3.77;;
5209;SDS011;2624;48.048;11.706;2023-12-07T02:31:55;6.03;;;4.13;;
5209;SDS011;2624;48.048;11.706;2023-12-07T02:36:58;2.33;;;2.17;;
5209;SDS011;2624;48.048;11.706;2023-12-07T02:42:02;3.77;;;2.30;;
5209;SDS011;2624;48.048;11.706;2023-12-07T02:47:07;5.37;;;3.33;;
5209;SDS011;2624;48.048;11.706;2023-12-07T02:52:09;5.30;;;4.13;;
5209;SDS011;2624;48.048;11.706;2023-12-07T02:57:11;7.17;;;5.13;;
5209;SDS011;2624;48.048;11.706;2023-12-07T03:02:16;16.03;;;5.17;;
5209;SDS011;2624;48.048;11.706;2023-12-07T03:07:17;11.93;;;4.60;;
5209;SDS011;2624;48.048;11.706;2023-12-07T03:12:19;6.40;;;4.20;;
5209;SDS011;2624;48.048;11.706;2023-12-07T03:17:22;4.80;;;2.27;;
5209;SDS011;2624;48.048;11.706;2023-12-07T03:22:24;6.97;;;4.77;;
5209;SDS011;2624;48.048;11.706;2023-12-07T03:27:26;2.60;;;2.40;;
5209;SDS011;2624;48.048;11.706;2023-12-07T03:32:29;2.63;;;2.00;;
5209;SDS011;2624;48.048;11.706;2023-12-07T03:37:31;2.90;;;2.50;;
5209;SDS011;2624;48.048;11.706;2023-12-07T03:42:33;6.17;;;3.87;;
5209;SDS011;2624;48.048;11.706;2023-12-07T03:47:36;5.80;;;3.00;;
5209;SDS011;2624;48.048;11.706;2023-12-07T03:52:38;9.97;;;4.07;;
5209;SDS011;2624;48.048;11.706;2023-12-07T03:57:39;12.63;;;4.07;;
5209;SDS011;2624;48.048;11.706;2023-12-07T04:02:42;5.10;;;4.10;;
5209;SDS011;2624;48.048;11.706;2023-12-07T04:07:44;5.60;;;3.90;;
5209;SDS011;2624;48.048;11.706;2023-12-07T04:12:46;8.47;;;5.17;;
5209;SDS011;2624;48.048;11.706;2023-12-07T04:17:49;10.77;;;4.10;;
5209;SDS011;2624;48.048;11.706;2023-12-07T04:22:51;7.07;;;3.53;;
5209;SDS011;2624;48.048;11.706;2023-12-07T04:27:53;9.83;;;4.70;;
5209;SDS011;2624;48.048;11.706;2023-12-07T04:32:57;8.90;;;4.20;;
5209;SDS011;2624;48.048;11.706;2023-12-07T04:37:59;3.03;;;2.80;;
5209;SDS011;2624;48.048;11.706;2023-12-07T04:43:01;4.30;;;3.90;;
5209;SDS011;2624;48.048;11.706;2023-12-07T04:48:04;2.90;;;2.30;;
5209;SDS011;2624;48.048;11.706;2023-12-07T04:53:06;5.60;;;2.27;;
5209;SDS011;2624;48.048;11.706;2023-12-07T04:58:07;5.97;;;2.67;;
5209;SDS011;2624;48.048;11.706;2023-12-07T05:03:11;4.57;;;3.03;;
5209;SDS011;2624;48.048;11.706;2023-12-07T05:08:12;4.13;;;2.83;;
5209;SDS011;2624;48.048;11.706;2023-12-07T05:13:14;7.47;;;4.13;;
5209;SDS011;2624;48.048;11.706;2023-12-07T05:18:17;6.27;;;4.30;;
5209;SDS011;2624;48.048;11.706;2023-12-07T05:23:19;8.00;;;4.40;;
5209;SDS011;2624;48.048;11.706;2023-12-07T05:28:21;8.13;;;3.83;;
5209;SDS011;2624;48.048;11.706;2023-12-07T05:33:24;13.87;;;5.13;;
5209;SDS011;2624;48.048;11.706;2023-12-07T05:38:25;5.13;;;3.83;;
5209;SDS011;2624;48.048;11.706;2023-12-07T05:43:27;8.30;;;4.00;;
5209;SDS011;2624;48.048;11.706;2023-12-07T05:48:30;6.00;;;3.80;;
5209;SDS011;2624;48.048;11.706;2023-12-07T05:53:32;2.80;;;2.57;;
5209;SDS011;2624;48.048;11.706;2023-12-07T05:58:34;6.07;;;4.10;;
5209;SDS011;2624;48.048;11.706;2023-12-07T06:03:37;4.67;;;3.63;;
5209;SDS011;2624;48.048;11.706;2023-12-07T06:08:39;6.77;;;2.80;;
5209;SDS011;2624;48.048;11.706;2023-12-07T06:13:41;7.50;;;3.67;;
5209;SDS011;2624;48.048;11.706;2023-12-07T06:18:44;6.93;;;4.37;;
5209;SDS011;2624;48.048;11.706;2023-12-07T06:23:46;9.33;;;4.90;;
5209;SDS011;2624;48.048;11.706;2023-12-07T06:28:48;6.37;;;4.27;;
5209;SDS011;2624;48.048;11.706;2023-12-07T06:33:51;8.93;;;5.70;;
5209;SDS011;2624;48.048;11.706;2023-12-07T06:38:53;7.07;;;4.07;;
5209;SDS011;2624;48.048;11.706;2023-12-07T06:43:55;8.13;;;4.40;;
5209;SDS011;2624;48.048;11.706;2023-12-07T06:48:59;8.30;;;5.00;;
5209;SDS011;2624;48.048;11.706;2023-12-07T06:54:01;6.70;;;4.50;;
5209;SDS011;2624;48.048;11.706;2023-12-07T06:59:03;5.27;;;3.80;;
5209;SDS011;2624;48.048;11.706;2023-12-07T07:04:06;5.33;;;3.50;;
5209;SDS011;2624;48.048;11.706;2023-12-07T07:09:08;6.47;;;2.87;;
5209;SDS011;2624;48.048;11.706;2023-12-07T07:14:11;4.07;;;2.60;;
5209;SDS011;2624;48.048;11.706;2023-12-07T07:19:14;6.93;;;3.17;;
5209;SDS011;2624;48.048;11.706;2023-12-07T07:24:17;11.43;;;4.63;;
5209;SDS011;2624;48.048;11.706;2023-12-07T07:29:18;4.63;;;3.70;;
5209;SDS011;2624;48.048;11.706;2023-12-07T07:34:22;8.60;;;4.20;;
5209;SDS011;2624;48.048;11.706;2023-12-07T07:39:25;4.47;;;3.20;;
5209;SDS011;2624;48.048;11.706;2023-12-07T07:44:26;2.53;;;1.97;;
5209;SDS011;2624;48.048;11.706;2023-12-07T07:49:30;5.43;;;2.27;;
5209;SDS011;2624;48.048;11.706;2023-12-07T07:54:31;9.03;;;3.87;;
5209;SDS011;2624;48.048;11.706;2023-12-07T07:59:33;8.03;;;3.97;;
5209;SDS011;2624;48.048;11.706;2023-12-07T08:04:36;5.07;;;3.70;;
5209;SDS011;2624;48.048;11.706;2023-12-07T08:09:38;7.03;;;4.23;;
5209;SDS011;2624;48.048;11.706;2023-12-07T08:14:40;10.97;;;4.83;;
5209;SDS011;2624;48.048;11.706;2023-12-07T08:19:45;3.77;;;3.13;;
5209;SDS011;2624;48.048;11.706;2023-12-07T08:24:47;4.53;;;3.40;;
5209;SDS011;2624;48.048;11.706;2023-12-07T08:29:49;5.47;;;3.20;;
5209;SDS011;2624;48.048;11.706;2023-12-07T08:34:52;10.07;;;4.17;;
5209;SDS011;2624;48.048;11.706;2023-12-07T08:39:54;3.70;;;3.40;;
5209;SDS011;2624;48.048;11.706;2023-12-07T08:44:56;6.63;;;4.50;;
5209;SDS011;2624;48.048;11.706;2023-12-07T08:49:59;7.37;;;4.57;;
5209;SDS011;2624;48.048;11.706;2023-12-07T08:55:01;9.30;;;3.60;;
5209;SDS011;2624;48.048;11.706;2023-12-07T09:00:03;5.97;;;3.50;;
5209;SDS011;2624;48.048;11.706;2023-12-07T09:05:08;7.63;;;3.10;;
5209;SDS011;2624;48.048;11.706;2023-12-07T09:10:10;6.47;;;4.40;;
5209;SDS011;2624;48.048;11.706;2023-12-07T09:15:12;11.27;;;5.70;;
5209;SDS011;2624;48.048;11.706;2023-12-07T09:20:16;4.70;;;4.00;;
5209;SDS011;2624;48.048;11.706;2023-12-07T09:25:17;8.27;;;4.53;;
5209;SDS011;2624;48.048;11.706;2023-12-07T09:30:19;11.20;;;3.53;;
5209;SDS011;2624;48.048;11.706;2023-12-07T09:35:22;5.57;;;2.80;;
5209;SDS011;2624;48.048;11.706;2023-12-07T09:40:24;7.57;;;3.27;;
5209;SDS011;2624;48.048;11.706;2023-12-07T09:45:28;7.90;;;4.53;;
5209;SDS011;2624;48.048;11.706;2023-12-07T09:50:31;7.53;;;5.97;;
5209;SDS011;2624;48.048;11.706;2023-12-07T09:55:32;6.03;;;4.10;;
5209;SDS011;2624;48.048;11.706;2023-12-07T10:00:34;12.53;;;4.77;;
5209;SDS011;2624;48.048;11.706;2023-12-07T10:11:02;7.67;;;4.80;;
5209;SDS011;2624;48.048;11.706;2023-12-07T10:16:05;5.30;;;3.80;;
5209;SDS011;2624;48.048;11.706;2023-12-07T10:21:10;5.87;;;4.20;;
5209;SDS011;2624;48.048;11.706;2023-12-07T10:26:12;3.73;;;3.33;;
5209;SDS011;2624;48.048;11.706;2023-12-07T10:31:17;2.57;;;2.30;;
5209;SDS011;2624;48.048;11.706;2023-12-07T10:36:21;3.43;;;2.40;;
5209;SDS011;2624;48.048;11.706;2023-12-07T10:41:23;4.20;;;2.90;;
5209;SDS011;2624;48.048;11.706;2023-12-07T10:46:26;3.33;;;2.90;;
5209;SDS011;2624;48.048;11.706;2023-12-07T10:51:31;4.73;;;2.83;;
5209;SDS011;2624;48.048;11.706;2023-12-07T10:56:38;2.50;;;2.30;;
5209;SDS011;2624;48.048;11.706;2023-12-07T11:01:43;2.80;;;2.33;;
5209;SDS011;2624;48.048;11.706;2023-12-07T11:06:48;2.93;;;2.73;;
5209;SDS011;2624;48.048;11.706;2023-12-07T11:11:54;3.20;;;2.80;;
5209;SDS011;2624;48.048;11.706;2023-12-07T11:16:59;3.17;;;2.00;;
5209;SDS011;2624;48.048;11.706;2023-12-07T11:22:02;2.83;;;2.53;;
5209;SDS011;2624;48.048;11.706;2023-12-07T11:27:07;3.20;;;2.70;;
5209;SDS011;2624;48.048;11.706;2023-12-07T11:32:10;3.83;;;2.30;;
5209;SDS011;2624;48.048;11.706;2023-12-07T11:37:15;3.13;;;2.80;;
5209;SDS011;2624;48.048;11.706;2023-12-07T11:42:18;3.00;;;1.90;;
5209;SDS011;2624;48.048;11.706;2023-12-07T11:47:20;1.80;;;1.70;;
5209;SDS011;2624;48.048;11.706;2023-12-07T11:52:23;2.90;;;2.70;;
5209;SDS011;2624;48.048;11.706;2023-12-07T11:57:26;6.93;;;3.00;;
5209;SDS011;2624;48.048;11.706;2023-12-07T12:02:28;2.03;;;1.87;;
5209;SDS011;2624;48.048;11.706;2023-12-07T12:07:35;13.43;;;2.60;;
5209;SDS011;2624;48.048;11.706;2023-12-07T12:12:37;4.83;;;3.23;;
5209;SDS011;2624;48.048;11.706;2023-12-07T12:17:40;2.00;;;1.50;;
5209;SDS011;2624;48.048;11.706;2023-12-07T12:22:43;1.60;;;1.50;;
5209;SDS011;2624;48.048;11.706;2023-12-07T12:27:45;1.00;;;1.00;;
5209;SDS011;2624;48.048;11.706;2023-12-07T12:32:48;1.23;;;1.23;;
5209;SDS011;2624;48.048;11.706;2023-12-07T12:37:51;3.00;;;1.80;;
5209;SDS011;2624;48.048;11.706;2023-12-07T12:42:55;1.37;;;1.27;;
5209;SDS011;2624;48.048;11.706;2023-12-07T12:47:57;1.43;;;1.33;;
5209;SDS011;2624;48.048;11.706;2023-12-07T12:53:00;1.70;;;1.60;;
5209;SDS011;2624;48.048;11.706;2023-12-07T12:58:06;1.70;;;1.20;;
5209;SDS011;2624;48.048;11.706;2023-12-07T13:03:08;1.17;;;1.17;;
5209;SDS011;2624;48.048;11.706;2023-12-07T13:08:14;1.30;;;1.20;;
5209;SDS011;2624;48.048;11.706;2023-12-07T13:13:16;10.80;;;1.17;;
5209;SDS011;2624;48.048;11.706;2023-12-07T13:18:18;0.67;;;0.67;;
5209;SDS011;2624;48.048;11.706;2023-12-07T13:23:21;0.83;;;0.83;;
5209;SDS011;2624;48.048;11.706;2023-12-07T13:28:22;1.03;;;1.03;;
5209;SDS011;2624;48.048;11.706;2023-12-07T13:33:24;1.40;;;1.40;;
5209;SDS011;2624;48.048;11.706;2023-12-07T13:38:27;1.70;;;1.60;;
5209;SDS011;2624;48.048;11.706;2023-12-07T13:43:30;1.13;;;1.10;;
5209;SDS011;2624;48.048;11.706;2023-12-07T13:48:32;2.60;;;2.17;;
5209;SDS011;2624;48.048;11.706;2023-12-07T13:53:35;1.53;;;1.43;;
5209;SDS011;2624;48.048;11.706;2023-12-07T13:58:37;1.80;;;1.70;;
5209;SDS011;2624;48.048;11.706;2023-12-07T14:03:39;3.67;;;3.00;;
5209;SDS011;2624;48.048;11.706;2023-12-07T14:08:43;3.00;;;2.80;;
5209;SDS011;2624;48.048;11.706;2023-12-07T14:13:45;3.23;;;3.00;;
5209;SDS011;2624;48.048;11.706;2023-12-07T14:18:48;5.33;;;2.40;;
5209;SDS011;2624;48.048;11.706;2023-12-07T14:23:51;2.43;;;2.30;;
5209;SDS011;2624;48.048;11.706;2023-12-07T14:28:54;4.30;;;3.30;;
5209;SDS011;2624;48.048;11.706;2023-12-07T14:33:56;2.30;;;2.10;;
5209;SDS011;2624;48.048;11.706;2023-12-07T14:38:59;4.87;;;2.23;;
5209;SDS011;2624;48.048;11.706;2023-12-07T14:44:00;1.40;;;1.40;;
5209;SDS011;2624;48.048;11.706;2023-12-07T14:49:02;1.80;;;1.80;;
5209;SDS011;2624;48.048;11.706;2023-12-07T14:54:05;2.33;;;1.90;;
5209;SDS011;2624;48.048;11.706;2023-12-07T14:59:09;2.00;;;1.60;;
5209;SDS011;2624;48.048;11.706;2023-12-07T15:04:11;2.23;;;1.87;;
5209;SDS011;2624;48.048;11.706;2023-12-07T15:09:15;1.97;;;1.83;;
5209;SDS011;2624;48.048;11.706;2023-12-07T15:14:16;1.20;;;1.20;;
5209;SDS011;2624;48.048;11.706;2023-12-07T15:19:19;2.60;;;2.40;;
5209;SDS011;2624;48.048;11.706;2023-12-07T15:24:22;2.40;;;2.13;;
5209;SDS011;2624;48.048;11.706;2023-12-07T15:29:23;2.17;;;2.00;;
5209;SDS011;2624;48.048;11.706;2023-12-07T15:34:25;1.43;;;1.33;;
5209;SDS011;2624;48.048;11.706;2023-12-07T15:39:28;2.90;;;2.67;;
5209;SDS011;2624;48.048;11.706;2023-12-07T15:44:31;3.10;;;2.20;;
5209;SDS011;2624;48.048;11.706;2023-12-07T15:49:32;1.63;;;1.53;;
5209;SDS011;2624;48.048;11.706;2023-12-07T15:54:35;3.83;;;2.50;;
5209;SDS011;2624;48.048;11.706;2023-12-07T15:59:37;3.40;;;1.90;;
5209;SDS011;2624;48.048;11.706;2023-12-07T16:04:40;2.20;;;2.10;;
5209;SDS011;2624;48.048;11.706;2023-12-07T16:09:43;3.07;;;2.87;;
5209;SDS011;2624;48.048;11.706;2023-12-07T16:14:45;2.20;;;1.80;;
5209;SDS011;2624;48.048;11.706;2023-12-07T16:19:46;2.33;;;1.70;;
5209;SDS011;2624;48.048;11.706;2023-12-07T16:24:49;5.70;;;2.50;;
5209;SDS011;2624;48.048;11.706;2023-12-07T16:29:52;2.10;;;2.00;;
5209;SDS011;2624;48.048;11.706;2023-12-07T16:34:54;1.23;;;1.17;;
5209;SDS011;2624;48.048;11.706;2023-12-07T16:39:57;1.23;;;1.13;;
5209;SDS011;2624;48.048;11.706;2023-12-07T16:44:58;0.83;;;0.83;;
5209;SDS011;2624;48.048;11.706;2023-12-07T16:50:00;1.10;;;1.10;;
5209;SDS011;2624;48.048;11.706;2023-12-07T16:55:03;1.37;;;1.20;;
5209;SDS011;2624;48.048;11.706;2023-12-07T17:00:06;1.37;;;1.37;;
5209;SDS011;2624;48.048;11.706;2023-12-07T17:05:11;3.77;;;2.90;;
5209;SDS011;2624;48.048;11.706;2023-12-07T17:10:14;4.77;;;3.40;;
5209;SDS011;2624;48.048;11.706;2023-12-07T17:15:16;5.90;;;2.90;;
5209;SDS011;2624;48.048;11.706;2023-12-07T17:20:18;4.60;;;2.37;;
5209;SDS011;2624;48.048;11.706;2023-12-07T17:25:21;4.07;;;2.90;;
5209;SDS011;2624;48.048;11.706;2023-12-07T17:30:24;2.93;;;1.70;;
5209;SDS011;2624;48.048;11.706;2023-12-07T17:35:26;5.30;;;3.10;;
5209;SDS011;2624;48.048;11.706;2023-12-07T17:40:29;4.80;;;4.20;;
5209;SDS011;2624;48.048;11.706;2023-12-07T17:45:30;7.47;;;3.80;;
5209;SDS011;2624;48.048;11.706;2023-12-07T17:50:32;2.90;;;2.47;;
5209;SDS011;2624;48.048;11.706;2023-12-07T17:55:35;4.30;;;2.70;;
5209;SDS011;2624;48.048;11.706;2023-12-07T18:00:37;7.70;;;2.77;;
5209;SDS011;2624;48.048;11.706;2023-12-07T18:05:39;3.20;;;2.80;;
5209;SDS011;2624;48.048;11.706;2023-12-07T18:10:42;3.50;;;2.17;;
5209;SDS011;2624;48.048;11.706;2023-12-07T18:15:44;2.47;;;1.77;;
5209;SDS011;2624;48.048;11.706;2023-12-07T18:20:46;4.73;;;2.10;;
5209;SDS011;2624;48.048;11.706;2023-12-07T18:25:49;3.80;;;3.10;;
5209;SDS011;2624;48.048;11.706;2023-12-07T18:30:51;11.30;;;7.40;;
5209;SDS011;2624;48.048;11.706;2023-12-07T18:35:53;14.70;;;6.60;;
5209;SDS011;2624;48.048;11.706;2023-12-07T18:40:56;12.57;;;7.90;;
5209;SDS011;2624;48.048;11.706;2023-12-07T18:45:58;15.70;;;6.90;;
5209;SDS011;2624;48.048;11.706;2023-12-07T18:51:01;10.47;;;6.43;;
5209;SDS011;2624;48.048;11.706;2023-12-07T18:56:04;11.07;;;5.97;;
5209;SDS011;2624;48.048;11.706;2023-12-07T19:01:09;8.27;;;5.03;;
5209;SDS011;2624;48.048;11.706;2023-12-07T19:06:11;13.13;;;7.13;;
5209;SDS011;2624;48.048;11.706;2023-12-07T19:11:14;7.40;;;5.27;;
5209;SDS011;2624;48.048;11.706;2023-12-07T19:16:16;7.80;;;4.60;;
5209;SDS011;2624;48.048;11.706;2023-12-07T19:21:17;6.80;;;3.97;;
5209;SDS011;2624;48.048;11.706;2023-12-07T19:26:20;6.27;;;3.27;;
5209;SDS011;2624;48.048;11.706;2023-12-07T19:31:22;7.00;;;4.10;;
5209;SDS011;2624;48.048;11.706;2023-12-07T19:36:24;12.07;;;5.50;;
5209;SDS011;2624;48.048;11.706;2023-12-07T19:41:28;9.53;;;5.00;;
5209;SDS011;2624;48.048;11.706;2023-12-07T19:46:30;3.80;;;2.77;;
5209;SDS011;2624;48.048;11.706;2023-12-07T19:51:32;2.83;;;2.60;;
5209;SDS011;2624;48.048;11.706;2023-12-07T19:56:35;3.60;;;2.33;;
5209;SDS011;2624;48.048;11.706;2023-12-07T20:01:37;4.30;;;2.33;;
5209;SDS011;2624;48.048;11.706;2023-12-07T20:06:39;4.27;;;2.97;;
5209;SDS011;2624;48.048;11.706;2023-12-07T20:11:42;5.37;;;3.23;;
5209;SDS011;2624;48.048;11.706;2023-12-07T20:16:44;9.00;;;3.97;;
5209;SDS011;2624;48.048;11.706;2023-12-07T20:21:46;13.13;;;5.07;;
5209;SDS011;2624;48.048;11.706;2023-12-07T20:26:49;9.87;;;4.00;;
5209;SDS011;2624;48.048;11.706;2023-12-07T20:31:51;15.80;;;4.77;;
5209;SDS011;2624;48.048;11.706;2023-12-07T20:36:52;6.23;;;3.83;;
5209;SDS011;2624;48.048;11.706;2023-12-07T20:41:56;8.50;;;3.20;;
5209;SDS011;2624;48.048;11.706;2023-12-07T20:46:57;5.70;;;2.47;;
5209;SDS011;2624;48.048;11.706;2023-12-07T20:51:59;5.90;;;2.90;;
5209;SDS011;2624;48.048;11.706;2023-12-07T20:57:02;3.57;;;2.57;;
5209;SDS011;2624;48.048;11.706;2023-12-07T21:02:05;6.53;;;4.13;;
5209;SDS011;2624;48.048;11.706;2023-12-07T21:07:07;14.67;;;6.00;;
5209;SDS011;2624;48.048;11.706;2023-12-07T21:12:10;9.50;;;4.70;;
5209;SDS011;2624;48.048;11.706;2023-12-07T21:17:11;9.63;;;4.73;;
5209;SDS011;2624;48.048;11.706;2023-12-07T21:22:17;5.80;;;3.43;;
5209;SDS011;2624;48.048;11.706;2023-12-07T21:27:20;5.33;;;3.57;;
5209;SDS011;2624;48.048;11.706;2023-12-07T21:32:22;5.97;;;4.00;;
5209;SDS011;2624;48.048;11.706;2023-12-07T21:37:24;5.17;;;3.60;;
5209;SDS011;2624;48.048;11.706;2023-12-07T21:42:27;6.43;;;3.77;;
5209;SDS011;2624;48.048;11.706;2023-12-07T21:47:29;5.50;;;3.40;;
5209;SDS011;2624;48.048;11.706;2023-12-07T21:52:31;6.40;;;3.70;;
5209;SDS011;2624;48.048;11.706;2023-12-07T21:57:34;4.73;;;3.37;;
5209;SDS011;2624;48.048;11.706;2023-12-07T22:02:36;5.90;;;3.30;;
5209;SDS011;2624;48.048;11.706;2023-12-07T22:07:38;3.03;;;2.73;;
5209;SDS011;2624;48.048;11.706;2023-12-07T22:12:41;3.33;;;2.60;;
5209;SDS011;2624;48.048;11.706;2023-12-07T22:17:43;5.93;;;1.97;;
5209;SDS011;2624;48.048;11.706;2023-12-07T22:22:45;6.70;;;3.87;;
5209;SDS011;2624;48.048;11.706;2023-12-07T22:27:48;6.03;;;3.70;;
5209;SDS011;2624;48.048;11.706;2023-12-07T22:32:50;5.73;;;3.77;;
5209;SDS011;2624;48.048;11.706;2023-12-07T22:37:51;6.27;;;2.27;;
5209;SDS011;2624;48.048;11.706;2023-12-07T22:42:54;2.00;;;1.80;;
5209;SDS011;2624;48.048;11.706;2023-12-07T22:47:56;5.60;;;3.80;;
5209;SDS011;2624;48.048;11.706;2023-12-07T22:52:58;5.60;;;3.70;;
5209;SDS011;2624;48.048;11.706;2023-12-07T22:58:01;6.70;;;2.70;;
5209;SDS011;2624;48.048;11.706;2023-12-07T23:03:03;4.63;;;4.13;;
5209;SDS011;2624;48.048;11.706;2023-12-07T23:08:05;8.83;;;5.23;;
5209;SDS011;2624;48.048;11.706;2023-12-07T23:13:08;6.60;;;4.00;;
5209;SDS011;2624;48.048;11.706;2023-12-07T23:18:10;6.10;;;4.23;;
5209;SDS011;2624;48.048;11.706;2023-12-07T23:23:12;9.10;;;4.80;;
5209;SDS011;2624;48.048;11.706;2023-12-07T23:28:15;10.40;;;3.23;;
5209;SDS011;2624;48.048;11.706;2023-12-07T23:33:17;6.67;;;4.40;;
5209;SDS011;2624;48.048;11.706;2023-12-07T23:38:18;6.80;;;3.57;;
5209;SDS011;2624;48.048;11.706;2023-12-07T23:43:21;7.87;;;3.27;;
5209;SDS011;2624;48.048;11.706;2023-12-07T23:48:23;4.47;;;2.73;;
5209;SDS011;2624;48.048;11.706;2023-12-07T23:53:25;5.30;;;3.50;;
5209;SDS011;2624;48.048;11.706;2023-12-07T23:58:28;8.90;;;4.93;;
